createdAt,value
2023-01-11T00:00:18.204Z,6.64
2023-01-11T00:02:39.760Z,6.45
2023-01-11T00:05:01.252Z,6.43
2023-01-11T00:07:22.668Z,6.39
2023-01-11T00:09:44.768Z,6.60
2023-01-11T00:12:06.385Z,6.58
2023-01-11T00:14:27.950Z,6.75
2023-01-11T00:16:49.336Z,6.88
2023-01-11T00:19:10.769Z,6.82
2023-01-11T00:21:32.257Z,6.63
2023-01-11T00:23:53.736Z,6.72
2023-01-11T00:26:15.836Z,6.74
2023-01-11T00:28:37.258Z,6.76
2023-01-11T00:30:59.523Z,6.74
2023-01-11T00:33:21.068Z,6.93
2023-01-11T00:35:42.500Z,6.91
2023-01-11T00:38:03.944Z,6.88
2023-01-11T00:40:26.401Z,6.84
2023-01-11T00:43:06.344Z,6.90
2023-01-11T00:45:46.305Z,6.84
2023-01-11T00:48:09.750Z,6.77
2023-01-11T00:50:36.121Z,7.01
2023-01-11T00:52:58.800Z,6.91
2023-01-11T00:55:20.292Z,7.04
2023-01-11T00:57:41.727Z,6.77
2023-01-11T01:00:04.255Z,6.70
2023-01-11T01:02:25.785Z,6.97
2023-01-11T01:04:47.229Z,6.97
2023-01-11T01:07:08.829Z,7.07
2023-01-11T01:09:30.665Z,7.17
2023-01-11T01:11:52.419Z,7.30
2023-01-11T01:14:28.885Z,7.16
2023-01-11T01:16:50.300Z,7.16
2023-01-11T01:19:12.301Z,7.23
2023-01-11T01:21:33.725Z,7.23
2023-01-11T01:23:55.834Z,7.02
2023-01-11T01:26:17.262Z,6.84
2023-01-11T01:28:38.695Z,6.87
2023-01-11T01:31:00.165Z,6.74
2023-01-11T01:33:22.588Z,6.78
2023-01-11T01:35:43.991Z,6.65
2023-01-11T01:38:06.166Z,6.66
2023-01-11T01:40:27.607Z,6.75
2023-01-11T01:42:53.468Z,6.73
2023-01-11T01:45:26.826Z,6.79
2023-01-11T01:47:52.948Z,6.96
2023-01-11T01:50:25.382Z,6.82
2023-01-11T01:52:50.277Z,6.85
2023-01-11T01:55:15.467Z,6.95
2023-01-11T01:57:39.999Z,6.66
2023-01-11T02:00:05.950Z,6.73
2023-01-11T02:02:27.584Z,6.79
2023-01-11T02:04:49.748Z,6.93
2023-01-11T02:07:16.324Z,6.65
2023-01-11T02:10:04.883Z,6.64
2023-01-11T02:12:30.474Z,6.60
2023-01-11T02:14:53.604Z,6.42
2023-01-11T02:17:15.386Z,6.37
2023-01-11T02:20:09.202Z,6.42
2023-01-11T02:23:05.363Z,6.42
2023-01-11T02:25:38.250Z,6.25
2023-01-11T02:28:08.239Z,6.28
2023-01-11T02:31:05.789Z,6.28
2023-01-11T02:34:00.770Z,6.24
2023-01-11T02:36:55.594Z,6.19
2023-01-11T02:39:31.081Z,6.22
2023-01-11T02:42:27.567Z,6.11
2023-01-11T02:45:04.088Z,6.20
2023-01-11T02:48:00.632Z,6.27
2023-01-11T02:50:37.750Z,6.30
2023-01-11T02:53:07.945Z,6.20
2023-01-11T02:55:34.717Z,6.36
2023-01-11T02:58:00.995Z,6.37
2023-01-11T03:00:23.584Z,6.52
2023-01-11T03:02:45.041Z,6.55
2023-01-11T03:05:24.457Z,6.52
2023-01-11T03:08:04.637Z,6.69
2023-01-11T03:10:47.537Z,6.59
2023-01-11T03:13:27.747Z,6.49
2023-01-11T03:16:15.761Z,6.64
2023-01-11T03:18:50.569Z,6.47
2023-01-11T03:21:36.757Z,6.46
2023-01-11T03:24:03.243Z,6.56
2023-01-11T03:26:37.087Z,6.61
2023-01-11T03:29:22.937Z,6.49
2023-01-11T03:32:24.997Z,6.51
2023-01-11T03:35:15.742Z,6.58
2023-01-11T03:38:03.404Z,6.62
2023-01-11T03:40:27.523Z,6.56
2023-01-11T03:43:10.931Z,6.69
2023-01-11T03:45:37.589Z,6.61
2023-01-11T03:48:02.996Z,6.68
2023-01-11T03:50:27.960Z,6.73
2023-01-11T03:52:51.287Z,6.76
2023-01-11T03:55:16.624Z,6.72
2023-01-11T03:57:43.702Z,6.64
2023-01-11T04:00:07.589Z,6.79
2023-01-11T04:02:35.800Z,6.78
2023-01-11T04:04:57.224Z,6.79
2023-01-11T04:07:18.975Z,7.04
2023-01-11T04:09:40.401Z,6.88
2023-01-11T04:12:01.836Z,7.02
2023-01-11T04:14:23.376Z,6.93
2023-01-11T04:16:44.794Z,7.12
2023-01-11T04:19:06.269Z,7.10
2023-01-11T04:21:27.646Z,7.05
2023-01-11T04:23:49.152Z,7.16
2023-01-11T04:26:10.555Z,7.14
2023-01-11T04:28:31.978Z,7.19
2023-01-11T04:30:53.803Z,7.22
2023-01-11T04:33:15.251Z,7.21
2023-01-11T04:35:36.691Z,7.22
2023-01-11T04:37:58.236Z,7.28
2023-01-11T04:40:20.277Z,7.36
2023-01-11T04:42:41.728Z,7.27
2023-01-11T04:45:06.070Z,7.41
2023-01-11T04:47:27.616Z,7.38
2023-01-11T04:49:49.522Z,7.39
2023-01-11T04:52:12.939Z,7.40
2023-01-11T04:54:34.396Z,7.51
2023-01-11T04:56:55.833Z,7.51
2023-01-11T04:59:17.355Z,7.60
2023-01-11T05:01:38.821Z,7.57
2023-01-11T05:04:00.312Z,7.63
2023-01-11T05:06:25.766Z,7.62
2023-01-11T05:08:47.609Z,7.74
2023-01-11T05:11:09.784Z,7.60
2023-01-11T05:13:43.759Z,7.69
2023-01-11T05:16:05.541Z,7.84
2023-01-11T05:18:27.009Z,7.87
2023-01-11T05:20:49.236Z,7.96
2023-01-11T05:23:10.683Z,8.08
2023-01-11T05:25:32.086Z,8.28
2023-01-11T05:27:53.564Z,8.29
2023-01-11T05:30:15.565Z,8.15
2023-01-11T05:32:37.037Z,8.11
2023-01-11T05:34:58.451Z,8.18
2023-01-11T05:37:19.870Z,8.35
2023-01-11T05:39:41.303Z,8.51
2023-01-11T05:42:02.730Z,8.52
2023-01-11T05:44:42.602Z,8.55
2023-01-11T05:47:04.352Z,8.62
2023-01-11T05:49:26.017Z,8.46
2023-01-11T05:51:47.422Z,8.42
2023-01-11T05:54:14.670Z,8.48
2023-01-11T05:56:36.086Z,8.31
2023-01-11T05:58:57.588Z,8.35
2023-01-11T06:01:20.730Z,8.33
2023-01-11T06:03:42.255Z,8.31
2023-01-11T06:06:03.760Z,8.05
2023-01-11T06:08:26.019Z,8.09
2023-01-11T06:10:51.789Z,8.00
2023-01-11T06:13:28.286Z,8.17
2023-01-11T06:15:49.766Z,8.01
2023-01-11T06:18:11.320Z,8.17
2023-01-11T06:20:32.783Z,8.25
2023-01-11T06:22:54.232Z,8.20
2023-01-11T06:25:15.652Z,8.13
2023-01-11T06:27:37.087Z,8.06
2023-01-11T06:29:58.485Z,8.21
2023-01-11T06:32:19.894Z,8.19
2023-01-11T06:34:41.342Z,8.05
2023-01-11T06:37:02.761Z,8.12
2023-01-11T06:39:24.183Z,8.26
2023-01-11T06:41:45.586Z,8.30
2023-01-11T06:44:07.088Z,8.28
2023-01-11T06:46:29.261Z,8.17
2023-01-11T06:48:50.932Z,8.25
2023-01-11T06:51:14.232Z,8.49
2023-01-11T06:53:35.696Z,8.46
2023-01-11T06:55:58.527Z,8.41
2023-01-11T06:58:22.394Z,8.63
2023-01-11T07:00:44.027Z,8.47
2023-01-11T07:03:06.829Z,8.37
2023-01-11T07:05:28.282Z,8.44
2023-01-11T07:07:49.730Z,8.50
2023-01-11T07:10:14.378Z,8.28
2023-01-11T07:12:36.980Z,8.48
2023-01-11T07:14:58.402Z,8.56
2023-01-11T07:17:19.820Z,8.60
2023-01-11T07:19:41.303Z,8.69
2023-01-11T07:22:02.774Z,8.66
2023-01-11T07:24:25.178Z,8.74
2023-01-11T07:26:46.582Z,8.81
2023-01-11T07:29:08.481Z,8.86
2023-01-11T07:31:29.918Z,8.92
2023-01-11T07:33:51.425Z,8.99
2023-01-11T07:36:12.831Z,8.99
2023-01-11T07:38:34.332Z,8.80
2023-01-11T07:40:55.732Z,8.65
2023-01-11T07:43:19.886Z,8.74
2023-01-11T07:45:46.512Z,8.95
2023-01-11T07:48:10.583Z,8.91
2023-01-11T07:50:32.271Z,8.89
2023-01-11T07:52:53.753Z,9.13
2023-01-11T07:55:16.111Z,9.06
2023-01-11T07:57:37.521Z,9.21
2023-01-11T07:59:58.941Z,9.19
2023-01-11T08:02:20.402Z,9.23
2023-01-11T08:04:41.877Z,9.12
2023-01-11T08:07:03.397Z,9.13
2023-01-11T08:09:24.834Z,9.14
2023-01-11T08:12:04.914Z,9.33
2023-01-11T08:14:41.481Z,9.20
2023-01-11T08:17:02.932Z,9.11
2023-01-11T08:19:24.394Z,9.24
2023-01-11T08:21:45.803Z,9.19
2023-01-11T08:24:07.282Z,9.23
2023-01-11T08:26:28.693Z,9.16
2023-01-11T08:28:50.468Z,9.21
2023-01-11T08:31:12.351Z,9.08
2023-01-11T08:33:33.788Z,9.28
2023-01-11T08:35:55.200Z,9.37
2023-01-11T08:38:16.669Z,9.26
2023-01-11T08:40:38.164Z,8.99
2023-01-11T08:42:59.817Z,9.00
2023-01-11T08:45:21.219Z,9.07
2023-01-11T08:47:42.711Z,9.17
2023-01-11T08:50:05.299Z,9.29
2023-01-11T08:52:26.805Z,9.27
2023-01-11T08:54:48.323Z,9.42
2023-01-11T08:57:10.506Z,9.17
2023-01-11T08:59:31.931Z,9.14
2023-01-11T09:01:53.432Z,9.27
2023-01-11T09:04:24.267Z,9.33
2023-01-11T09:06:46.403Z,9.27
2023-01-11T09:09:07.818Z,9.49
2023-01-11T09:11:47.664Z,9.48
2023-01-11T09:14:09.105Z,9.40
2023-01-11T09:16:30.710Z,9.38
2023-01-11T09:18:52.145Z,9.45
2023-01-11T09:21:14.126Z,9.42
2023-01-11T09:23:35.575Z,9.60
2023-01-11T09:25:57.054Z,9.43
2023-01-11T09:28:18.556Z,9.53
2023-01-11T09:30:39.969Z,9.51
2023-01-11T09:33:01.427Z,9.58
2023-01-11T09:35:22.929Z,9.74
2023-01-11T09:37:52.222Z,9.85
2023-01-11T09:40:20.698Z,9.58
2023-01-11T09:42:43.414Z,9.59
2023-01-11T09:45:24.351Z,9.58
2023-01-11T09:48:17.441Z,9.56
2023-01-11T09:50:45.531Z,9.60
2023-01-11T09:53:13.801Z,9.77
2023-01-11T09:55:50.861Z,9.83
2023-01-11T09:58:53.558Z,9.96
2023-01-11T10:01:30.011Z,9.90
2023-01-11T10:04:32.804Z,9.76
2023-01-11T10:07:12.376Z,9.74
2023-01-11T10:18:26.283Z,9.66
2023-01-11T10:19:33.415Z,9.64
2023-01-11T10:22:00.517Z,9.66
2023-01-11T10:24:29.046Z,9.66
2023-01-11T10:26:54.193Z,9.60
2023-01-11T10:29:46.473Z,9.72
2023-01-11T10:33:10.838Z,9.58
2023-01-11T10:35:45.919Z,9.58
2023-01-11T10:38:30.881Z,9.60
2023-01-11T10:41:06.871Z,9.71
2023-01-11T10:43:32.053Z,9.67
2023-01-11T10:46:00.778Z,9.68
2023-01-11T10:48:42.018Z,9.73
2023-01-11T10:51:48.679Z,9.76
2023-01-11T10:54:23.187Z,9.72
2023-01-11T10:57:22.875Z,9.85
2023-01-11T10:59:58.040Z,9.95
2023-01-11T11:03:23.384Z,9.91
2023-01-11T11:06:01.623Z,9.97
2023-01-11T11:08:35.753Z,9.81
2023-01-11T11:11:03.344Z,9.82
2023-01-11T11:14:05.597Z,9.88
2023-01-11T11:16:39.166Z,9.86
2023-01-11T11:19:01.267Z,10.18
2023-01-11T11:21:28.620Z,10.30
2023-01-11T11:24:01.963Z,10.10
2023-01-11T11:26:31.347Z,9.96
2023-01-11T11:29:02.281Z,10.00
2023-01-11T11:31:23.910Z,10.12
2023-01-11T11:33:46.462Z,10.25
2023-01-11T11:36:11.026Z,10.11
2023-01-11T11:38:37.874Z,10.28
2023-01-11T11:41:13.015Z,10.25
2023-01-11T11:44:10.302Z,10.20
2023-01-11T11:46:31.998Z,10.17
2023-01-11T11:49:13.198Z,10.06
2023-01-11T11:51:34.732Z,10.11
2023-01-11T11:53:57.250Z,10.15
2023-01-11T11:56:30.888Z,9.94
2023-01-11T11:58:54.049Z,9.99
2023-01-11T12:01:26.382Z,10.22
2023-01-11T12:03:48.815Z,10.36
2023-01-11T12:06:10.297Z,10.24
2023-01-11T12:08:34.607Z,10.40
2023-01-11T12:10:58.962Z,10.50
2023-01-11T12:13:40.297Z,10.60
2023-01-11T12:16:17.940Z,10.52
2023-01-11T12:18:42.841Z,10.65
2023-01-11T12:21:15.708Z,10.45
2023-01-11T12:23:37.124Z,10.40
2023-01-11T12:26:13.027Z,10.36
2023-01-11T12:29:22.988Z,10.42
2023-01-11T12:31:52.849Z,10.33
2023-01-11T12:34:19.995Z,10.33
2023-01-11T12:37:17.552Z,10.24
2023-01-11T12:39:44.767Z,10.23
2023-01-11T12:42:28.873Z,10.24
2023-01-11T12:45:02.467Z,10.15
2023-01-11T12:48:00.220Z,10.08
2023-01-11T12:50:41.160Z,10.12
2023-01-11T12:53:10.382Z,10.13
2023-01-11T12:55:57.991Z,10.13
2023-01-11T12:58:31.661Z,10.31
2023-01-11T13:01:45.583Z,10.27
2023-01-11T13:04:33.125Z,10.56
2023-01-11T13:07:12.839Z,10.75
2023-01-11T13:10:10.300Z,10.74
2023-01-11T13:12:53.527Z,10.74
2023-01-11T13:15:30.079Z,10.93
2023-01-11T13:18:03.596Z,11.03
2023-01-11T13:20:44.495Z,11.16
2023-01-11T13:23:35.442Z,11.26
2023-01-11T13:25:57.999Z,11.40
2023-01-11T13:28:31.098Z,11.39
2023-01-11T13:30:52.876Z,11.49
2023-01-11T13:33:21.633Z,11.33
2023-01-11T13:35:50.092Z,11.49
2023-01-11T13:38:49.912Z,11.57
2023-01-11T13:41:19.258Z,11.55
2023-01-11T13:43:59.460Z,11.70
2023-01-11T13:46:48.803Z,11.80
2023-01-11T13:49:35.219Z,11.90
2023-01-11T13:52:03.037Z,11.74
2023-01-11T13:54:41.497Z,11.86
2023-01-11T13:57:15.385Z,11.53
2023-01-11T13:59:45.664Z,11.31
2023-01-11T14:02:25.527Z,11.03
2023-01-11T14:04:52.813Z,10.83
2023-01-11T14:07:43.400Z,10.53
2023-01-11T14:10:33.059Z,10.29
2023-01-11T14:12:54.443Z,10.22
2023-01-11T14:15:40.667Z,10.25
2023-01-11T14:18:18.468Z,10.10
2023-01-11T14:21:08.266Z,10.09
2023-01-11T14:23:43.019Z,9.97
2023-01-11T14:26:29.318Z,9.85
2023-01-11T14:29:10.151Z,9.81
2023-01-11T14:31:57.985Z,9.88
2023-01-11T14:34:53.541Z,9.89
2023-01-11T14:37:51.820Z,9.88
2023-01-11T14:40:41.874Z,9.94
2023-01-11T14:43:39.531Z,9.93
2023-01-11T14:46:29.758Z,10.08
2023-01-11T14:49:10.832Z,9.92
2023-01-11T14:51:44.513Z,9.69
2023-01-11T14:54:08.228Z,9.64
2023-01-11T14:56:41.923Z,9.54
2023-01-11T14:59:22.251Z,9.46
2023-01-11T15:02:13.003Z,9.40
2023-01-11T15:04:37.634Z,9.45
2023-01-11T15:07:00.030Z,9.36
2023-01-11T15:09:50.967Z,9.29
2023-01-11T15:12:18.493Z,9.29
2023-01-11T15:14:47.262Z,9.36
2023-01-11T15:17:36.542Z,9.26
2023-01-11T15:20:07.381Z,9.07
2023-01-11T15:22:32.022Z,9.15
2023-01-11T15:25:00.575Z,9.10
2023-01-11T15:27:31.518Z,9.02
2023-01-11T15:29:57.331Z,8.97
2023-01-11T15:32:29.471Z,8.89
2023-01-11T15:34:50.946Z,8.86
2023-01-11T15:37:43.642Z,8.89
2023-01-11T15:40:14.105Z,8.88
2023-01-11T15:42:54.239Z,8.84
2023-01-11T15:46:03.477Z,8.68
2023-01-11T15:48:32.521Z,8.66
2023-01-11T15:51:09.176Z,8.65
2023-01-11T15:53:56.303Z,8.57
2023-01-11T15:56:26.465Z,8.52
2023-01-11T15:59:15.923Z,8.51
2023-01-11T16:02:11.526Z,8.56
2023-01-11T16:04:43.477Z,8.32
2023-01-11T16:07:18.401Z,8.33
2023-01-11T16:10:10.222Z,8.30
2023-01-11T16:12:45.465Z,8.27
2023-01-11T16:15:44.416Z,8.27
2023-01-11T16:18:21.650Z,8.21
2023-01-11T16:20:55.721Z,8.16
2023-01-11T16:23:20.848Z,8.18
2023-01-11T16:25:42.472Z,8.18
2023-01-11T16:28:04.714Z,8.14
2023-01-11T16:30:27.791Z,8.08
2023-01-11T16:32:49.320Z,8.05
2023-01-11T16:35:25.209Z,8.04
2023-01-11T16:37:51.799Z,8.11
2023-01-11T16:40:36.487Z,8.17
2023-01-11T16:43:05.206Z,8.16
2023-01-11T16:45:49.424Z,8.19
2023-01-11T16:48:19.091Z,8.19
2023-01-11T16:50:48.482Z,8.02
2023-01-11T16:53:14.342Z,8.09
2023-01-11T16:55:39.909Z,8.06
2023-01-11T16:58:28.886Z,8.04
2023-01-11T17:00:58.869Z,7.99
2023-01-11T17:03:24.098Z,8.10
2023-01-11T17:05:58.543Z,8.43
2023-01-11T17:08:48.111Z,8.67
2023-01-11T17:11:31.316Z,8.75
2023-01-11T17:14:14.512Z,8.65
2023-01-11T17:16:39.379Z,8.57
2023-01-11T17:19:14.305Z,8.49
2023-01-11T17:21:36.195Z,8.51
2023-01-11T17:24:04.282Z,8.29
2023-01-11T17:26:29.081Z,8.12
2023-01-11T17:28:55.772Z,8.03
2023-01-11T17:31:27.553Z,7.97
2023-01-11T17:33:59.206Z,7.88
2023-01-11T17:36:20.671Z,7.87
2023-01-11T17:38:43.899Z,7.77
2023-01-11T17:41:27.492Z,7.78
2023-01-11T17:44:07.786Z,7.71
2023-01-11T17:46:29.379Z,7.98
2023-01-11T17:48:56.242Z,8.03
2023-01-11T17:51:27.593Z,8.06
2023-01-11T17:53:50.457Z,8.02
2023-01-11T17:56:59.220Z,7.86
2023-01-11T17:59:24.036Z,7.81
2023-01-11T18:01:48.980Z,7.77
2023-01-11T18:04:19.699Z,7.79
2023-01-11T18:06:45.029Z,7.81
2023-01-11T18:09:18.362Z,7.72
2023-01-11T18:11:41.897Z,7.70
2023-01-11T18:14:07.406Z,7.72
2023-01-11T18:16:29.001Z,7.71
2023-01-11T18:18:52.045Z,7.60
2023-01-11T18:21:57.732Z,7.65
2023-01-11T18:24:30.213Z,7.60
2023-01-11T18:27:15.863Z,7.66
2023-01-11T18:29:37.219Z,7.61
2023-01-11T18:31:58.674Z,7.61
2023-01-11T18:34:20.073Z,7.56
2023-01-11T18:36:41.616Z,7.57
2023-01-11T18:39:09.942Z,7.58
2023-01-11T18:41:49.950Z,7.57
2023-01-11T18:44:11.994Z,7.51
2023-01-11T18:46:33.439Z,7.52
2023-01-11T18:48:54.912Z,7.48
2023-01-11T18:51:33.688Z,7.47
2023-01-11T18:53:55.108Z,7.54
2023-01-11T18:56:16.593Z,7.61
2023-01-11T18:58:37.993Z,7.58
2023-01-11T19:01:00.323Z,7.51
2023-01-11T19:03:21.830Z,7.51
2023-01-11T19:05:43.388Z,7.55
2023-01-11T19:08:05.038Z,7.52
2023-01-11T19:10:27.379Z,7.48
2023-01-11T19:12:49.280Z,7.55
2023-01-11T19:15:11.863Z,7.62
2023-01-11T19:17:33.379Z,7.57
2023-01-11T19:19:54.954Z,7.52
2023-01-11T19:22:16.425Z,7.59
2023-01-11T19:24:39.462Z,7.57
2023-01-11T19:27:01.140Z,7.61
2023-01-11T19:29:24.665Z,7.67
2023-01-11T19:31:47.404Z,7.68
2023-01-11T19:34:08.831Z,7.68
2023-01-11T19:36:32.238Z,7.69
2023-01-11T19:38:53.706Z,7.80
2023-01-11T19:41:16.647Z,7.62
2023-01-11T19:43:44.787Z,7.62
2023-01-11T19:46:06.323Z,7.55
2023-01-11T19:48:28.165Z,7.57
2023-01-11T19:50:49.653Z,7.69
2023-01-11T19:53:11.117Z,7.57
2023-01-11T19:55:32.542Z,7.57
2023-01-11T19:57:54.075Z,7.65
2023-01-11T20:00:15.956Z,7.52
2023-01-11T20:02:37.445Z,7.55
2023-01-11T20:04:58.877Z,7.58
2023-01-11T20:07:20.440Z,7.55
2023-01-11T20:09:41.999Z,7.57
2023-01-11T20:12:05.629Z,7.56
2023-01-11T20:14:27.090Z,7.61
2023-01-11T20:16:48.538Z,7.59
2023-01-11T20:19:10.311Z,7.50
2023-01-11T20:21:34.199Z,7.48
2023-01-11T20:23:57.679Z,7.47
2023-01-11T20:26:19.164Z,7.45
2023-01-11T20:28:49.393Z,7.57
2023-01-11T20:31:11.897Z,7.49
2023-01-11T20:33:33.525Z,7.63
2023-01-11T20:35:54.948Z,7.64
2023-01-11T20:38:16.826Z,7.66
2023-01-11T20:40:38.890Z,7.69
2023-01-11T20:43:00.307Z,7.66
2023-01-11T20:45:21.738Z,7.61
2023-01-11T20:47:43.178Z,7.69
2023-01-11T20:50:04.897Z,7.77
2023-01-11T20:52:26.333Z,7.78
2023-01-11T20:54:47.759Z,7.75
2023-01-11T20:57:12.485Z,7.72
2023-01-11T20:59:34.812Z,7.69
2023-01-11T21:01:56.337Z,7.80
2023-01-11T21:04:18.656Z,7.83
2023-01-11T21:06:42.398Z,7.66
2023-01-11T21:09:04.647Z,7.57
2023-01-11T21:11:27.038Z,7.81
2023-01-11T21:13:51.361Z,7.75
2023-01-11T21:16:16.623Z,7.58
2023-01-11T21:18:39.471Z,7.67
2023-01-11T21:21:00.970Z,7.63
2023-01-11T21:23:22.457Z,7.66
2023-01-11T21:25:43.878Z,7.77
2023-01-11T21:28:05.278Z,7.83
2023-01-11T21:30:26.680Z,7.95
2023-01-11T21:32:48.116Z,7.91
2023-01-11T21:35:09.661Z,7.85
2023-01-11T21:37:31.071Z,7.72
2023-01-11T21:39:52.612Z,7.52
2023-01-11T21:42:14.060Z,7.55
2023-01-11T21:44:35.509Z,7.55
2023-01-11T21:46:57.127Z,7.50
2023-01-11T21:49:18.594Z,7.43
2023-01-11T21:51:40.288Z,7.05
2023-01-11T21:54:07.525Z,7.11
2023-01-11T21:56:29.061Z,7.09
2023-01-11T21:58:50.658Z,7.07
2023-01-11T22:01:13.791Z,7.08
2023-01-11T22:03:35.342Z,7.03
2023-01-11T22:06:01.401Z,7.08
2023-01-11T22:08:23.034Z,6.99
2023-01-11T22:10:44.463Z,6.89
2023-01-11T22:13:05.889Z,7.08
2023-01-11T22:15:27.359Z,6.95
2023-01-11T22:17:48.806Z,6.93
2023-01-11T22:20:11.116Z,6.88
2023-01-11T22:22:32.955Z,6.97
2023-01-11T22:24:54.399Z,6.86
2023-01-11T22:27:15.959Z,6.87
2023-01-11T22:29:37.474Z,6.74
2023-01-11T22:32:01.417Z,6.83
2023-01-11T22:34:24.263Z,6.79
2023-01-11T22:36:46.657Z,6.70
2023-01-11T22:39:08.462Z,6.83
2023-01-11T22:41:30.258Z,6.88
2023-01-11T22:43:53.290Z,6.80
2023-01-11T22:46:17.789Z,6.76
2023-01-11T22:48:39.227Z,6.81
2023-01-11T22:51:05.422Z,6.80
2023-01-11T22:53:26.869Z,6.96
2023-01-11T22:55:48.333Z,6.92
2023-01-11T22:58:09.723Z,6.88
2023-01-11T23:00:31.185Z,6.84
2023-01-11T23:02:52.715Z,6.86
2023-01-11T23:05:14.265Z,6.85
2023-01-11T23:07:35.682Z,6.89
2023-01-11T23:09:57.088Z,6.92
2023-01-11T23:12:37.173Z,6.88
2023-01-11T23:14:58.576Z,6.92
2023-01-11T23:17:20.621Z,6.96
2023-01-11T23:19:42.151Z,6.95
2023-01-11T23:22:04.029Z,6.98
2023-01-11T23:24:25.456Z,7.00
2023-01-11T23:26:46.982Z,7.05
2023-01-11T23:29:08.692Z,7.06
2023-01-11T23:31:30.750Z,7.04
2023-01-11T23:33:55.867Z,7.02
2023-01-11T23:36:18.955Z,7.07
2023-01-11T23:38:40.422Z,7.05
2023-01-11T23:41:28.074Z,7.03
2023-01-11T23:43:49.729Z,7.01
2023-01-11T23:46:30.253Z,7.08
2023-01-11T23:48:51.664Z,7.08
2023-01-11T23:51:13.077Z,7.11
2023-01-11T23:53:34.500Z,7.20
2023-01-11T23:55:55.960Z,7.17
2023-01-11T23:58:19.525Z,7.18
